Keyport, New Jersey
Current Conditions -  °F | °C
As of 12:35 AM on Wednesday 26 Nov 2014 (Local Time) from KLDJ Reporting Station
Scattered Clouds Scattered Clouds  
Wind Chill: 50°   Ceiling: Unl
Heat Index: 50°   Visibility: 10mi
Dew Point: 36°   Wind: 5mph
Humidity: 57%   Direction: 310°NW
Pressure: 30.19"   Gusts: NA
Location:  40.44°N, 74.2°W
Report Text: KLDJ 260535Z AUTO 31004KT 10SM SCT120 10/02 A3019 RMK AO2 T01020020
Loading
Personal Weather Stations






























Interactive Weather Map New forecast layout! Learn more

10-Day Weather Forecast

Advertisements
Track Severe Weather on mobile